Time;durP1;ratioP1;P1;durP2;ratioP2;P2;SDS_P1;SDS_P2;PMS_P1;PMS_P2;Temp;Humidity;BMP_temperature;BMP_pressure;BME280_temperature;BME280_humidity;BME280_pressure;Samples;Min_cycle;Max_cycle;Signal;HPM_P1;HPM_P2
2021/10/19 00:00:03;;;;;;;;;22.00;20.75;;;;;18.25;68.87;101241.72;5058869;28;45573;-83
2021/10/19 00:02:29;;;;;;;;;22.75;19.50;;;;;18.20;68.89;101233.38;5077480;28;46465;-82
2021/10/19 00:08:16;;;;;;;;;20.75;20.00;;;;;18.30;69.09;101252.75;5076998;28;45801;-81
2021/10/19 00:10:42;;;;;;;;;18.75;17.00;;;;;18.32;68.88;101250.78;5077800;28;45544;-81
2021/10/19 00:13:07;;;;;;;;;19.75;18.75;;;;;18.17;69.02;101224.88;5077237;28;46790;-80
2021/10/19 00:15:32;;;;;;;;;18.00;18.00;;;;;18.30;68.82;101243.97;5077259;28;45982;-81
2021/10/19 00:17:58;;;;;;;;;19.00;19.00;;;;;18.35;69.23;101244.38;5077108;28;45605;-82
2021/10/19 00:20:23;;;;;;;;;17.25;16.75;;;;;18.28;68.85;101227.34;5077008;28;45630;-80
2021/10/19 00:22:49;;;;;;;;;20.25;18.00;;;;;18.36;69.35;101238.06;5077061;28;46457;-80
2021/10/19 00:25:16;;;;;;;;;17.25;16.00;;;;;18.21;69.33;101220.94;5058637;28;48105;-81
2021/10/19 00:27:43;;;;;;;;;19.50;18.25;;;;;18.30;69.11;101230.72;5077071;28;45609;-82
2021/10/19 00:30:12;;;;;;;;;17.75;17.50;;;;;18.20;69.01;101206.84;5077248;28;45622;-83
2021/10/19 00:32:41;;;;;;;;;18.25;18.00;;;;;18.30;69.23;101226.22;5076625;28;46511;-81
2021/10/19 00:38:28;;;;;;;;;17.00;16.00;;;;;18.31;69.02;101233.19;5077046;28;45658;-81
2021/10/19 00:40:54;;;;;;;;;16.25;16.00;;;;;18.39;69.03;101251.91;5076992;28;45692;-81
2021/10/19 00:43:20;;;;;;;;;17.00;15.25;;;;;18.26;68.94;101221.34;5076745;28;45885;-81
2021/10/19 00:45:45;;;;;;;;;16.25;15.00;;;;;18.41;69.44;101243.78;5076598;28;45533;-82
2021/10/19 00:48:15;;;;;;;;;16.25;15.25;;;;;18.39;69.35;101229.84;5076279;28;45691;-81
2021/10/19 00:50:41;;;;;;;;;16.00;14.75;;;;;18.41;69.20;101230.50;5076592;28;45501;-80
2021/10/19 00:53:07;;;;;;;;;14.00;12.50;;;;;18.38;69.22;101230.81;5075919;28;46602;-81
2021/10/19 00:55:33;;;;;;;;;16.00;14.75;;;;;18.29;68.84;101215.78;5076707;28;46162;-80
2021/10/19 00:58:00;;;;;;;;;15.75;15.00;;;;;18.22;69.18;101210.19;5076865;28;45554;-82
2021/10/19 01:00:25;;;;;;;;;15.00;14.25;;;;;18.41;69.32;101251.75;5076564;28;45526;-82
2021/10/19 01:02:51;;;;;;;;;14.00;13.50;;;;;18.41;69.48;101244.63;5076057;28;45554;-80
2021/10/19 01:08:38;;;;;;;;;14.25;13.75;;;;;18.25;68.86;101227.63;5076325;28;45650;-80
2021/10/19 01:11:07;;;;;;;;;17.00;16.00;;;;;18.43;69.33;101252.44;5076833;28;45824;-81
2021/10/19 01:13:33;;;;;;;;;13.75;12.75;;;;;18.27;69.11;101233.63;5076432;28;45784;-81
2021/10/19 01:16:10;;;;;;;;;15.75;15.00;;;;;18.35;69.08;101247.84;5078833;28;45891;-80
2021/10/19 01:18:39;;;;;;;;;15.75;15.00;;;;;18.45;68.96;101259.28;5079974;28;45481;-80
2021/10/19 01:21:06;;;;;;;;;13.50;13.50;;;;;18.45;68.90;101269.91;5080482;28;45634;-80
2021/10/19 01:23:33;;;;;;;;;13.75;12.75;;;;;18.34;68.83;101251.50;5078425;28;47187;-81
2021/10/19 01:26:00;;;;;;;;;14.50;13.75;;;;;18.32;69.29;101240.19;5058166;28;46496;-81
2021/10/19 01:28:25;;;;;;;;;13.25;12.75;;;;;18.33;69.01;101241.88;5075977;28;45811;-82
2021/10/19 01:30:51;;;;;;;;;14.00;13.00;;;;;18.48;69.17;101265.28;5076378;28;45748;-80
2021/10/19 01:33:17;;;;;;;;;13.50;13.00;;;;;18.31;69.22;101233.19;5075933;28;45625;-80
2021/10/19 01:39:05;;;;;;;;;14.00;12.75;;;;;18.52;69.37;101258.69;5075473;28;45768;-80
2021/10/19 01:41:30;;;;;;;;;14.00;13.50;;;;;18.36;69.13;101230.13;5076138;28;45669;-81
2021/10/19 01:43:56;;;;;;;;;12.75;12.75;;;;;18.53;68.86;101258.56;5075371;28;46780;-80
2021/10/19 01:46:22;;;;;;;;;8.00;8.00;;;;;18.53;68.96;101250.59;5075968;28;45684;-81
2021/10/19 01:48:47;;;;;;;;;13.00;12.50;;;;;18.55;68.71;101253.16;5075289;28;45689;-81
2021/10/19 01:51:13;;;;;;;;;12.25;11.25;;;;;18.46;69.11;101233.59;5075569;28;45706;-81
2021/10/19 01:53:39;;;;;;;;;12.00;11.00;;;;;18.21;69.23;101192.59;5075768;28;45565;-81
2021/10/19 01:56:04;;;;;;;;;12.00;12.00;;;;;18.51;68.88;101249.09;5075780;28;46123;-81
2021/10/19 01:58:30;;;;;;;;;11.50;11.00;;;;;18.58;68.83;101255.50;5057264;28;45677;-80
2021/10/19 02:00:58;;;;;;;;;12.75;12.00;;;;;18.54;69.30;101248.78;5075810;28;45828;-80
2021/10/19 02:03:23;;;;;;;;;14.25;13.25;;;;;18.61;68.82;101255.22;5075177;28;46417;-80
2021/10/19 02:09:10;;;;;;;;;14.50;14.50;;;;;18.59;69.22;101252.72;5074808;28;45561;-81
2021/10/19 02:11:36;;;;;;;;;12.25;12.25;;;;;18.59;68.67;101254.53;5075331;28;45587;-80
2021/10/19 02:14:01;;;;;;;;;12.00;12.00;;;;;18.57;69.00;101238.72;5074700;28;47332;-81
2021/10/19 02:16:27;;;;;;;;;15.00;14.00;;;;;18.36;69.23;101201.75;5075012;28;45690;-81
2021/10/19 02:18:52;;;;;;;;;15.75;14.25;;;;;18.53;68.70;101237.31;5074979;28;45590;-80
2021/10/19 02:24:39;;;;;;;;;11.00;10.00;;;;;18.49;68.98;101217.38;5074405;28;45683;-81
2021/10/19 02:27:05;;;;;;;;;13.00;12.00;;;;;18.56;68.90;101228.28;5074816;28;45665;-81
2021/10/19 02:29:32;;;;;;;;;12.00;11.75;;;;;18.50;69.19;101226.19;5074768;28;45482;-81
2021/10/19 02:31:58;;;;;;;;;13.00;12.75;;;;;18.58;68.80;101235.09;5075043;28;45619;-81
2021/10/19 02:34:23;;;;;;;;;11.50;10.50;;;;;18.60;69.03;101240.28;5074634;28;46507;-81
2021/10/19 02:36:49;;;;;;;;;14.00;12.75;;;;;18.61;69.13;101244.59;5074733;28;45816;-81
2021/10/19 02:39:16;;;;;;;;;12.25;11.50;;;;;18.58;68.75;101234.25;5074276;28;45630;-80
2021/10/19 02:41:41;;;;;;;;;12.25;12.25;;;;;18.58;68.98;101235.09;5075196;28;45582;-80
2021/10/19 02:44:07;;;;;;;;;13.00;12.50;;;;;18.61;69.01;101239.31;5075355;28;46077;-80
2021/10/19 02:46:33;;;;;;;;;12.75;12.00;;;;;18.58;69.39;101234.25;5075961;28;47597;-80
2021/10/19 02:49:02;;;;;;;;;14.25;12.75;;;;;18.52;68.87;101221.53;5078308;28;45677;-81
2021/10/19 02:55:03;;;;;;;;;12.00;11.00;;;;;18.38;69.46;101201.63;5072942;28;45684;-80
2021/10/19 02:57:29;;;;;;;;;15.00;14.50;;;;;18.56;69.56;101231.78;5075086;28;45609;-81
2021/10/19 02:59:55;;;;;;;;;13.00;13.00;;;;;18.56;69.27;101234.44;5075082;28;45546;-81
2021/10/19 03:02:20;;;;;;;;;11.75;10.75;;;;;18.37;69.10;101208.75;5074692;28;45486;-81
2021/10/19 03:04:46;;;;;;;;;12.00;11.00;;;;;18.31;69.85;101198.72;5074316;28;46511;-81
2021/10/19 03:07:12;;;;;;;;;12.00;11.00;;;;;18.56;69.65;101237.09;5074601;28;46205;-81
2021/10/19 03:09:37;;;;;;;;;13.75;12.75;;;;;18.48;69.40;101221.00;5074145;28;45687;-81
2021/10/19 03:12:03;;;;;;;;;12.75;12.75;;;;;18.28;69.42;101196.34;5074517;28;45704;-82
2021/10/19 03:14:28;;;;;;;;;10.75;10.00;;;;;18.45;69.59;101221.31;5074208;28;45587;-81
2021/10/19 03:16:53;;;;;;;;;12.00;11.00;;;;;18.56;69.32;101238.91;5067509;28;45771;-82
2021/10/19 03:19:19;;;;;;;;;13.75;13.25;;;;;18.61;69.44;101244.59;5077665;28;45671;-82
2021/10/19 03:25:07;;;;;;;;;14.00;13.50;;;;;18.60;69.86;101234.97;5077947;28;46155;-81
2021/10/19 03:27:33;;;;;;;;;13.00;12.00;;;;;18.59;69.20;101234.13;5077822;28;46070;-80
2021/10/19 03:29:58;;;;;;;;;12.00;11.75;;;;;18.58;69.60;101237.75;5077516;28;45609;-82
2021/10/19 03:32:24;;;;;;;;;11.25;11.00;;;;;18.60;69.55;101240.28;5077641;28;45583;-82
2021/10/19 03:34:49;;;;;;;;;11.50;10.50;;;;;18.58;70.01;101239.56;5042647;28;48930;-81
2021/10/19 03:37:14;;;;;;;;;12.75;10.00;;;;;18.43;69.63;101218.78;5077517;28;45655;-82
2021/10/19 03:39:40;;;;;;;;;12.75;11.25;;;;;18.61;70.02;101244.59;5058822;28;46023;-82
2021/10/19 03:42:05;;;;;;;;;10.00;9.25;;;;;18.53;69.44;101241.78;5077600;28;45874;-82
2021/10/19 03:44:31;;;;;;;;;11.50;11.50;;;;;18.61;69.90;101247.25;5077369;28;45603;-80
2021/10/19 03:46:56;;;;;;;;;11.75;11.50;;;;;18.56;70.00;101242.41;5077005;28;46282;-81
2021/10/19 03:49:21;;;;;;;;;14.00;11.00;;;;;18.58;70.12;101243.06;5077312;28;45599;-82
2021/10/19 03:55:09;;;;;;;;;12.75;11.00;;;;;18.66;70.31;101267.09;5076190;28;45920;-82
2021/10/19 03:57:34;;;;;;;;;13.75;11.50;;;;;18.61;70.09;101257.88;5077309;28;46465;-82
2021/10/19 04:00:00;;;;;;;;;10.25;10.00;;;;;18.68;69.94;101266.91;5077260;28;45900;-83
2021/10/19 04:02:25;;;;;;;;;14.75;11.00;;;;;18.67;69.96;101259.97;5077127;28;45665;-81
2021/10/19 04:04:51;;;;;;;;;11.00;10.00;;;;;18.71;69.53;101258.69;5076946;28;46419;-82
2021/10/19 04:07:16;;;;;;;;;13.50;11.75;;;;;18.63;69.51;101242.63;5077080;28;46046;-82
2021/10/19 04:09:41;;;;;;;;;13.25;12.50;;;;;18.53;69.54;101234.66;5077062;28;45621;-81
2021/10/19 04:12:09;;;;;;;;;13.25;12.50;;;;;18.73;69.46;101262.84;5077223;28;45837;-81
2021/10/19 04:14:34;;;;;;;;;12.00;11.00;;;;;18.72;69.32;101263.00;5077018;28;46447;-82
2021/10/19 04:17:00;;;;;;;;;13.25;12.00;;;;;18.75;69.59;101271.50;5076931;28;45586;-81
2021/10/19 04:19:25;;;;;;;;;13.00;12.00;;;;;18.71;69.83;101267.47;5076561;28;45626;-80
2021/10/19 04:25:13;;;;;;;;;15.00;13.00;;;;;18.60;69.72;101242.94;5076325;28;45549;-83
2021/10/19 04:27:38;;;;;;;;;13.50;11.50;;;;;18.68;69.37;101258.94;5075921;28;46062;-80
2021/10/19 04:30:05;;;;;;;;;8.00;7.75;;;;;18.77;69.35;101274.88;5063848;28;45717;-81
2021/10/19 04:32:31;;;;;;;;;14.00;12.00;;;;;18.77;70.01;101268.72;5083223;28;45907;-81
2021/10/19 04:34:56;;;;;;;;;12.25;12.00;;;;;18.74;69.64;101269.84;5083532;28;47805;-83
2021/10/19 04:40:43;;;;;;;;;11.00;10.00;;;;;18.70;69.75;101257.00;5076419;28;45635;-81
2021/10/19 04:43:08;;;;;;;;;11.75;11.75;;;;;18.79;69.37;101274.69;5076997;28;45728;-81
2021/10/19 04:45:34;;;;;;;;;13.25;11.50;;;;;18.56;69.47;101228.28;5058218;28;47831;-80
2021/10/19 04:48:03;;;;;;;;;12.50;11.00;;;;;18.79;69.47;101272.03;5076569;28;45652;-81
2021/10/19 04:50:29;;;;;;;;;12.25;10.75;;;;;18.83;69.88;101274.28;5076854;28;45725;-82
2021/10/19 04:52:55;;;;;;;;;14.00;12.75;;;;;18.83;69.67;101284.06;5076969;28;45708;-82
2021/10/19 04:55:21;;;;;;;;;13.75;11.50;;;;;18.79;69.70;101272.88;5076500;28;45629;-82
2021/10/19 04:57:46;;;;;;;;;12.25;12.25;;;;;18.85;69.70;101277.63;5078283;28;45830;-81
2021/10/19 05:00:12;;;;;;;;;14.50;12.50;;;;;18.82;69.52;101277.09;5076782;28;45836;-82
2021/10/19 05:02:48;;;;;;;;;15.00;13.50;;;;;18.82;69.15;101271.78;5058523;28;46028;-82
2021/10/19 05:05:15;;;;;;;;;16.00;14.75;;;;;18.89;69.53;101280.84;5076394;28;46348;-83
2021/10/19 05:11:02;;;;;;;;;14.75;13.00;;;;;18.86;69.88;101278.47;5076746;28;45631;-80
2021/10/19 05:13:28;;;;;;;;;14.50;12.25;;;;;18.78;69.21;101263.28;5076923;28;45531;-82
2021/10/19 05:15:53;;;;;;;;;13.00;12.50;;;;;18.71;69.34;101246.25;5085307;28;45479;-81
2021/10/19 05:18:18;;;;;;;;;14.50;13.00;;;;;18.83;69.66;101274.28;5088315;28;45477;-79
2021/10/19 05:20:44;;;;;;;;;16.00;14.00;;;;;18.86;69.50;101273.16;5070742;28;44961;-83
2021/10/19 05:23:09;;;;;;;;;15.50;14.75;;;;;18.88;69.55;101273.00;5085331;28;45469;-82
2021/10/19 05:25:34;;;;;;;;;14.75;14.50;;;;;18.89;69.25;101280.00;5068383;28;47184;-81
2021/10/19 05:28:00;;;;;;;;;16.00;13.00;;;;;18.79;69.10;101266.72;5087714;28;45348;-81
2021/10/19 05:30:25;;;;;;;;;15.50;13.50;;;;;18.89;69.42;101275.53;5091689;28;45482;-81
2021/10/19 05:32:51;;;;;;;;;14.50;12.25;;;;;18.90;69.54;101273.69;5083340;28;45427;-81
2021/10/19 05:35:16;;;;;;;;;15.75;13.75;;;;;18.73;69.20;101246.91;5077655;28;45482;-80
2021/10/19 05:41:04;;;;;;;;;16.75;15.00;;;;;18.83;69.59;101253.06;5079142;28;45711;-82
2021/10/19 05:43:30;;;;;;;;;14.50;14.50;;;;;18.80;69.55;101255.97;5077523;28;45511;-83
2021/10/19 05:45:55;;;;;;;;;15.75;14.50;;;;;18.80;69.33;101260.44;5058620;28;48578;-83
2021/10/19 05:48:21;;;;;;;;;14.75;14.25;;;;;18.66;69.31;101231.75;5076367;28;45716;-82
2021/10/19 05:50:46;;;;;;;;;12.25;12.25;;;;;18.60;68.92;101221.69;5077108;28;45659;-81
2021/10/19 05:53:12;;;;;;;;;16.00;13.50;;;;;18.72;69.11;101241.78;5076248;28;45404;-82
2021/10/19 05:55:38;;;;;;;;;15.00;13.75;;;;;18.64;69.42;101239.00;5057735;28;48295;-80
2021/10/19 05:58:04;;;;;;;;;14.00;13.25;;;;;18.79;69.14;101256.94;5058102;28;47360;-81
2021/10/19 06:00:30;;;;;;;;;15.50;13.25;;;;;18.78;69.15;101259.78;5076257;28;45682;-81
2021/10/19 06:02:56;;;;;;;;;12.25;12.25;;;;;18.60;69.52;101235.81;5078401;28;45653;-81
2021/10/19 06:05:22;;;;;;;;;14.25;13.50;;;;;18.57;68.99;101240.59;5063534;28;47427;-80
2021/10/19 06:11:09;;;;;;;;;13.75;13.00;;;;;18.55;69.34;101243.38;5082284;28;45686;-82
2021/10/19 06:13:34;;;;;;;;;15.75;14.75;;;;;18.57;69.73;101257.31;5061418;28;45983;-82
2021/10/19 06:16:00;;;;;;;;;13.25;13.00;;;;;18.69;69.74;101271.25;5057345;28;46594;-84
2021/10/19 06:18:25;;;;;;;;;14.25;13.25;;;;;18.61;69.74;101256.06;5075734;28;45999;-86
2021/10/19 06:20:52;;;;;;;;;14.00;14.00;;;;;18.52;69.30;101245.44;5077374;28;45673;-88
2021/10/19 06:26:39;;;;;;;;;15.75;14.50;;;;;18.42;69.54;101237.50;5076916;28;45585;-85
2021/10/19 06:29:07;;;;;;;;;15.25;14.25;;;;;18.59;69.67;101263.31;5077100;28;46349;-87
2021/10/19 06:31:33;;;;;;;;;16.00;15.00;;;;;18.25;69.24;101217.84;5058535;28;45723;-90
2021/10/19 06:33:58;;;;;;;;;12.25;11.25;;;;;18.42;69.40;101248.94;5077129;28;45428;-89
2021/10/19 06:36:24;;;;;;;;;14.50;13.00;;;;;18.56;69.52;101271.59;5075818;28;45865;-88
2021/10/19 06:38:50;;;;;;;;;13.50;13.00;;;;;18.51;69.17;101265.84;5057698;28;47375;-82
2021/10/19 06:41:15;;;;;;;;;15.75;14.00;;;;;18.51;69.50;101262.34;5056491;28;45696;-82
2021/10/19 06:43:41;;;;;;;;;12.50;11.75;;;;;18.60;69.65;101280.94;5056784;28;46006;-83
2021/10/19 06:46:06;;;;;;;;;14.00;13.00;;;;;18.35;69.54;101241.72;5074784;28;46999;-84
2021/10/19 06:48:32;;;;;;;;;19.50;19.25;;;;;18.37;69.27;101258.31;5075063;28;45690;-83
2021/10/19 06:50:57;;;;;;;;;21.50;18.75;;;;;18.43;69.41;101263.91;5076272;28;45471;-86
2021/10/19 06:56:45;;;;;;;;;15.25;15.00;;;;;18.50;69.62;101274.78;5073007;27;46178;-83
2021/10/19 06:59:10;;;;;;;;;12.75;11.50;;;;;18.44;68.89;101280.66;5074939;28;46333;-84
2021/10/19 07:01:35;;;;;;;;;14.50;13.50;;;;;18.51;69.40;101278.28;5074331;28;45627;-83
2021/10/19 07:04:01;;;;;;;;;12.25;11.50;;;;;18.44;69.04;101278.00;5074493;28;45693;-81
2021/10/19 07:06:26;;;;;;;;;12.00;11.00;;;;;18.39;69.05;101269.63;5075233;28;46306;-82
2021/10/19 07:08:53;;;;;;;;;17.25;15.00;;;;;18.45;69.32;101282.34;5074098;28;45609;-84
2021/10/19 07:11:19;;;;;;;;;13.75;12.50;;;;;18.37;69.03;101266.28;5074522;28;45700;-81
2021/10/19 07:13:44;;;;;;;;;19.25;16.25;;;;;18.28;69.28;101257.38;5074145;28;45772;-85
2021/10/19 07:16:10;;;;;;;;;18.25;16.75;;;;;18.49;69.06;101291.69;5074782;28;45621;-84
2021/10/19 07:18:35;;;;;;;;;15.50;15.00;;;;;18.36;68.97;101273.41;5074657;28;45623;-84
2021/10/19 07:21:01;;;;;;;;;14.75;13.25;;;;;18.28;69.12;101257.38;5074712;28;45663;-85
2021/10/19 07:26:48;;;;;;;;;18.75;17.00;;;;;18.43;69.17;101278.97;5074847;28;45589;-84
2021/10/19 07:29:14;;;;;;;;;14.00;13.50;;;;;18.49;69.05;101298.81;5075809;28;45597;-81
2021/10/19 07:31:39;;;;;;;;;16.50;15.00;;;;;18.43;69.24;101286.94;5074965;28;45637;-82
2021/10/19 07:34:05;;;;;;;;;15.00;14.75;;;;;18.39;69.05;101289.06;5056274;28;46029;-85
2021/10/19 07:36:31;;;;;;;;;12.75;12.50;;;;;18.47;68.62;101306.91;5074366;28;46711;-82
2021/10/19 07:42:19;;;;;;;;;14.75;13.75;;;;;18.43;68.85;101306.34;5074786;28;45683;-80
2021/10/19 07:44:44;;;;;;;;;13.25;13.25;;;;;18.33;68.62;101292.28;5057197;28;45827;-87
2021/10/19 07:47:09;;;;;;;;;16.00;16.00;;;;;18.43;69.05;101310.81;5055648;28;47378;-82
2021/10/19 07:49:35;;;;;;;;;16.50;14.25;;;;;18.29;68.87;101293.53;5076573;28;45652;-82
2021/10/19 07:52:00;;;;;;;;;14.75;14.00;;;;;18.39;69.05;101302.31;5077396;28;45712;-81
2021/10/19 07:54:26;;;;;;;;;16.75;14.50;;;;;18.43;68.73;101309.00;5077926;28;45888;-86
2021/10/19 07:56:51;;;;;;;;;18.50;14.25;;;;;18.35;68.46;101297.44;5060873;28;48154;-90
2021/10/19 07:59:17;;;;;;;;;14.50;13.00;;;;;18.20;68.29;101269.66;5059620;28;47317;-83
2021/10/19 08:01:42;;;;;;;;;17.50;15.00;;;;;18.34;68.69;101295.75;5077148;28;46012;-83
2021/10/19 08:04:08;;;;;;;;;13.75;13.25;;;;;18.11;68.28;101258.09;5077566;28;45800;-82
2021/10/19 08:06:34;;;;;;;;;15.00;13.75;;;;;18.40;68.44;101316.44;5077833;28;47478;-83
2021/10/19 08:12:23;;;;;;;;;16.75;14.50;;;;;18.37;68.53;101322.84;5077113;28;45807;-82
2021/10/19 08:14:48;;;;;;;;;12.25;12.00;;;;;18.32;68.30;101316.28;5076965;28;46001;-80
2021/10/19 08:17:13;;;;;;;;;13.25;12.25;;;;;18.23;68.54;101303.88;5076427;28;46374;-83
2021/10/19 08:19:39;;;;;;;;;11.75;11.50;;;;;18.39;68.61;101330.66;5058499;28;46344;-84
2021/10/19 08:22:04;;;;;;;;;13.25;12.50;;;;;18.24;68.81;101303.75;5076849;28;45530;-80
2021/10/19 08:24:29;;;;;;;;;15.00;13.50;;;;;18.42;68.37;101335.69;5076983;28;45679;-82
2021/10/19 08:26:55;;;;;;;;;14.00;13.75;;;;;18.15;68.74;101293.13;5058210;28;48212;-84
2021/10/19 08:29:20;;;;;;;;;13.75;13.00;;;;;18.15;68.76;101301.91;5077229;28;45689;-84
2021/10/19 08:31:45;;;;;;;;;15.00;13.00;;;;;18.29;68.60;101320.06;5077417;28;45682;-85
2021/10/19 08:34:11;;;;;;;;;15.50;13.75;;;;;18.45;68.44;101349.53;5078180;28;45678;-81
2021/10/19 08:36:36;;;;;;;;;14.00;13.00;;;;;18.31;68.41;101328.72;5077104;28;46356;-89
2021/10/19 08:42:23;;;;;;;;;10.25;9.25;;;;;18.40;68.48;101342.97;5077010;28;45542;-88
2021/10/19 08:44:49;;;;;;;;;15.00;14.25;;;;;18.42;68.79;101344.47;5076937;28;45557;-85
2021/10/19 08:47:15;;;;;;;;;13.25;13.00;;;;;18.46;68.31;101350.38;5076271;28;46286;-84
2021/10/19 08:49:41;;;;;;;;;11.00;10.00;;;;;18.43;68.52;101340.00;5077756;28;45633;-84
2021/10/19 08:52:07;;;;;;;;;13.50;12.25;;;;;18.33;68.48;101318.81;5063034;28;45551;-90
2021/10/19 08:57:58;;;;;;;;;14.50;13.75;;;;;18.52;68.18;101330.34;5078708;28;45776;-89
2021/10/19 09:00:26;;;;;;;;;16.50;14.75;;;;;18.66;68.28;101341.41;5080064;28;45961;-88
2021/10/19 09:02:52;;;;;;;;;15.25;15.25;;;;;18.49;68.28;101298.81;5079286;28;45690;-88
2021/10/19 09:05:22;;;;;;;;;15.25;14.25;;;;;18.71;68.55;101341.81;5079153;28;45667;-87
2021/10/19 09:08:12;;;;;;;;;13.75;12.75;;;;;18.65;68.38;101320.31;5079440;28;46326;-90
2021/10/19 09:10:40;;;;;;;;;13.50;11.50;;;;;18.77;68.44;101335.09;5080303;28;46031;-88
2021/10/19 09:13:13;;;;;;;;;13.25;12.25;;;;;18.72;68.28;101327.56;5086281;28;45332;-88
2021/10/19 09:15:40;;;;;;;;;13.75;13.75;;;;;18.72;68.28;101316.09;5088080;28;45383;-88
2021/10/19 09:18:12;;;;;;;;;11.50;10.25;;;;;18.68;68.06;101312.03;5084577;28;46448;-88
2021/10/19 09:20:43;;;;;;;;;15.25;14.00;;;;;18.86;68.39;101328.91;5084861;28;45569;-89
2021/10/19 09:23:12;;;;;;;;;13.25;12.50;;;;;18.90;68.15;101334.75;5084074;28;45551;-87
2021/10/19 09:25:40;;;;;;;;;13.00;12.25;;;;;18.91;68.24;101334.63;5081001;28;45800;-87
2021/10/19 09:28:12;;;;;;;;;13.25;10.75;;;;;18.91;68.37;101341.75;5080329;28;45866;-85
2021/10/19 09:30:45;;;;;;;;;12.00;10.75;;;;;18.93;68.28;101342.44;5061122;28;47754;-85
2021/10/19 09:33:19;;;;;;;;;10.00;9.75;;;;;18.98;68.23;101343.69;5080302;28;45594;-88
2021/10/19 09:35:48;;;;;;;;;12.50;11.75;;;;;19.01;68.00;101342.53;5081250;28;45640;-86
2021/10/19 09:38:14;;;;;;;;;13.50;11.00;;;;;19.04;68.36;101339.63;5080674;28;46776;-87
2021/10/19 09:40:45;;;;;;;;;11.00;10.50;;;;;19.05;67.45;101334.16;5082235;28;46174;-86
2021/10/19 09:43:14;;;;;;;;;13.00;11.00;;;;;19.11;68.08;101333.56;5083045;28;45537;-83
2021/10/19 09:45:42;;;;;;;;;12.75;11.75;;;;;19.16;68.11;101338.47;5082471;28;45870;-89
2021/10/19 09:48:12;;;;;;;;;12.00;11.75;;;;;19.07;68.16;101316.25;5080510;28;45513;-86
2021/10/19 09:50:38;;;;;;;;;10.25;9.50;;;;;19.09;67.80;101318.75;5079338;28;45562;-85
2021/10/19 09:53:05;;;;;;;;;12.50;10.00;;;;;19.26;67.85;101345.41;5078605;28;45459;-90
2021/10/19 09:55:32;;;;;;;;;11.25;11.25;;;;;19.25;67.86;101340.22;5077528;28;45624;-82
2021/10/19 09:57:58;;;;;;;;;11.50;10.25;;;;;19.24;67.78;101344.69;5076835;28;45609;-88
2021/10/19 10:00:24;;;;;;;;;11.25;9.75;;;;;19.13;67.68;101318.31;5076501;28;46519;-87
2021/10/19 10:02:50;;;;;;;;;11.75;11.75;;;;;19.16;67.82;101312.69;5076827;28;45776;-81
2021/10/19 10:05:17;;;;;;;;;10.75;10.75;;;;;19.38;67.83;101347.88;5077037;28;45632;-84
2021/10/19 10:07:45;;;;;;;;;13.25;11.50;;;;;19.24;67.58;101309.31;5076633;28;45621;-81
2021/10/19 10:13:33;;;;;;;;;9.25;9.25;;;;;19.47;67.68;101331.91;5079623;28;45698;-90
2021/10/19 10:16:10;;;;;;;;;7.25;6.00;;;;;19.44;67.24;101320.66;5079108;28;45681;-89
2021/10/19 10:18:36;;;;;;;;;12.25;11.00;;;;;19.47;67.25;101318.59;5079670;28;46877;-87
2021/10/19 10:21:20;;;;;;;;;10.25;9.50;;;;;19.45;67.12;101309.09;5080284;28;46408;-88
2021/10/19 10:23:46;;;;;;;;;9.75;8.25;;;;;19.60;67.09;101337.66;5079631;28;45565;-85
2021/10/19 10:26:28;;;;;;;;;9.50;9.50;;;;;19.67;67.05;101332.59;5079749;28;45392;-86
2021/10/19 10:28:53;;;;;;;;;12.00;10.75;;;;;19.73;66.97;101331.16;5080905;28;45669;-86
2021/10/19 10:31:23;;;;;;;;;12.75;12.75;;;;;19.78;66.78;101334.22;5082291;28;45628;-88
2021/10/19 10:34:00;;;;;;;;;13.50;12.50;;;;;19.81;66.80;101326.75;5082994;28;45652;-87
2021/10/19 10:36:43;;;;;;;;;11.00;10.75;;;;;19.85;66.76;101324.66;5063646;28;45572;-83
2021/10/19 10:39:09;;;;;;;;;16.00;15.00;;;;;19.83;66.87;101318.63;5078509;28;45701;-82
2021/10/19 10:41:41;;;;;;;;;11.50;11.00;;;;;19.93;66.32;101314.06;5056954;28;47393;-80
2021/10/19 10:44:09;;;;;;;;;13.75;13.75;;;;;19.79;66.32;101282.69;5075451;28;45672;-83
2021/10/19 10:46:35;;;;;;;;;12.75;10.75;;;;;20.02;66.10;101303.38;5075381;28;45695;-81
2021/10/19 10:49:01;;;;;;;;;13.50;13.00;;;;;20.07;66.01;101310.88;5075342;28;46545;-85
2021/10/19 10:51:28;;;;;;;;;12.00;12.00;;;;;20.11;65.84;101305.09;5077055;28;45722;-84
2021/10/19 10:53:54;;;;;;;;;13.00;12.50;;;;;20.16;65.72;101304.63;5077217;28;45558;-85
2021/10/19 10:56:20;;;;;;;;;12.00;12.00;;;;;20.16;65.30;101296.66;5077631;28;45517;-85
2021/10/19 10:58:45;;;;;;;;;15.00;13.00;;;;;20.24;65.21;101302.06;5078086;28;46333;-84
2021/10/19 11:01:27;;;;;;;;;12.00;11.75;;;;;20.31;64.92;101294.25;5078569;28;45726;-88
2021/10/19 11:04:07;;;;;;;;;14.00;13.75;;;;;20.33;64.98;101292.31;5078167;28;45780;-85
2021/10/19 11:06:34;;;;;;;;;13.50;12.00;;;;;20.37;63.79;101285.69;5078572;28;45448;-84
2021/10/19 11:09:06;;;;;;;;;12.25;11.50;;;;;20.47;64.36;101283.75;5076961;28;47303;-84
2021/10/19 11:11:38;;;;;;;;;10.50;10.00;;;;;20.52;64.58;101292.13;5077269;28;46048;-83
2021/10/19 11:14:14;;;;;;;;;13.00;12.25;;;;;20.58;64.41;101295.97;5077331;28;45740;-83
2021/10/19 11:16:48;;;;;;;;;12.25;10.75;;;;;20.47;64.25;101267.78;5077894;28;45488;-82
2021/10/19 11:19:22;;;;;;;;;14.25;11.50;;;;;20.67;64.21;101279.06;5079716;28;45672;-84
2021/10/19 11:21:51;;;;;;;;;12.50;11.25;;;;;20.71;63.84;101275.94;5080384;28;45746;-85
2021/10/19 11:24:17;;;;;;;;;12.00;11.00;;;;;20.71;64.21;101259.13;5080950;28;45678;-89
2021/10/19 11:26:43;;;;;;;;;12.50;11.25;;;;;20.77;63.63;101258.50;5079061;28;45598;-85
2021/10/19 11:29:09;;;;;;;;;11.25;10.75;;;;;20.84;63.64;101263.00;5076558;28;45603;-86
2021/10/19 11:31:37;;;;;;;;;11.75;11.25;;;;;20.89;63.38;101270.53;5076340;28;46220;-85
2021/10/19 11:34:04;;;;;;;;;13.00;12.00;;;;;20.94;63.54;101268.22;5076330;28;45590;-84
2021/10/19 11:36:30;;;;;;;;;13.75;12.25;;;;;20.87;63.63;101237.88;5076010;27;45472;-83
2021/10/19 11:38:58;;;;;;;;;12.50;12.50;;;;;20.96;63.61;101236.91;5081249;28;45622;-82
2021/10/19 11:41:28;;;;;;;;;13.25;12.50;;;;;21.04;62.95;101244.97;5078398;28;46172;-88
2021/10/19 11:43:57;;;;;;;;;11.25;10.00;;;;;20.86;63.30;101198.91;5060300;28;45689;-83
2021/10/19 11:46:25;;;;;;;;;11.50;10.50;;;;;21.11;63.03;101232.63;5061537;28;45508;-90
2021/10/19 11:48:53;;;;;;;;;13.50;10.50;;;;;21.15;63.06;101230.53;5080547;28;46545;-85
2021/10/19 11:51:21;;;;;;;;;13.00;12.75;;;;;21.17;62.44;101232.03;5079837;28;46106;-86
2021/10/19 11:53:47;;;;;;;;;12.25;11.50;;;;;21.19;62.73;101222.03;5080175;28;45480;-83
2021/10/19 11:56:14;;;;;;;;;11.00;10.00;;;;;21.24;62.15;101213.56;5079032;28;45658;-89
2021/10/19 11:58:53;;;;;;;;;12.00;10.25;;;;;21.30;62.33;101219.06;5078439;28;46966;-86
2021/10/19 12:01:23;;;;;;;;;9.75;8.50;;;;;21.30;62.11;101196.91;5078249;28;45859;-82
2021/10/19 12:03:59;;;;;;;;;11.00;9.50;;;;;21.39;61.92;101205.75;5077423;28;45645;-84
2021/10/19 12:06:30;;;;;;;;;10.75;9.00;;;;;21.32;61.29;101189.59;5078522;28;45724;-86
2021/10/19 12:08:57;;;;;;;;;10.00;9.75;;;;;21.40;61.18;101186.91;5078305;28;45587;-85
2021/10/19 12:11:27;;;;;;;;;12.25;10.00;;;;;21.52;61.60;101201.59;5078841;28;46222;-84
2021/10/19 12:13:58;;;;;;;;;9.25;8.75;;;;;21.57;61.09;101196.59;5079478;28;45596;-85
2021/10/19 12:16:28;;;;;;;;;9.25;9.00;;;;;21.61;61.50;101192.59;5079695;28;45548;-81
2021/10/19 12:18:54;;;;;;;;;8.75;8.00;;;;;21.62;60.96;101188.09;5078974;28;46422;-84
2021/10/19 12:21:20;;;;;;;;;8.00;8.00;;;;;21.61;60.65;101179.28;5077908;28;46122;-82